sensor_id;sensor_type;location;lat;lon;timestamp;temperature;humidity
18147;DHT22;9199;48.832;9.182;2023-03-01T00:01:16;-0.40;99.90
18147;DHT22;9199;48.832;9.182;2023-03-01T00:03:44;-0.40;99.90
18147;DHT22;9199;48.832;9.182;2023-03-01T00:06:11;-0.40;99.90
18147;DHT22;9199;48.832;9.182;2023-03-01T00:08:38;-0.40;99.90
18147;DHT22;9199;48.832;9.182;2023-03-01T00:11:06;-0.40;99.90
18147;DHT22;9199;48.832;9.182;2023-03-01T00:13:34;-0.40;99.90
18147;DHT22;9199;48.832;9.182;2023-03-01T00:16:02;-0.50;99.90
18147;DHT22;9199;48.832;9.182;2023-03-01T00:18:29;-0.50;99.90
18147;DHT22;9199;48.832;9.182;2023-03-01T00:20:57;-0.50;99.90
18147;DHT22;9199;48.832;9.182;2023-03-01T00:23:25;-0.50;99.90
18147;DHT22;9199;48.832;9.182;2023-03-01T00:25:52;-0.60;99.90
18147;DHT22;9199;48.832;9.182;2023-03-01T00:28:20;-0.60;99.90
18147;DHT22;9199;48.832;9.182;2023-03-01T00:30:47;-0.60;99.90
18147;DHT22;9199;48.832;9.182;2023-03-01T00:33:13;-0.70;99.90
18147;DHT22;9199;48.832;9.182;2023-03-01T00:35:40;-0.70;99.90
18147;DHT22;9199;48.832;9.182;2023-03-01T00:38:08;-0.60;99.90
18147;DHT22;9199;48.832;9.182;2023-03-01T00:40:36;-0.60;99.90
18147;DHT22;9199;48.832;9.182;2023-03-01T00:43:03;-0.60;99.90
18147;DHT22;9199;48.832;9.182;2023-03-01T00:45:30;-0.60;99.90
18147;DHT22;9199;48.832;9.182;2023-03-01T00:47:57;-0.60;99.90
18147;DHT22;9199;48.832;9.182;2023-03-01T00:50:25;-0.60;99.90
18147;DHT22;9199;48.832;9.182;2023-03-01T00:52:53;-0.60;99.90
18147;DHT22;9199;48.832;9.182;2023-03-01T00:55:21;-0.60;99.90
18147;DHT22;9199;48.832;9.182;2023-03-01T00:57:48;-0.60;99.90
18147;DHT22;9199;48.832;9.182;2023-03-01T01:00:16;-0.60;99.90
18147;DHT22;9199;48.832;9.182;2023-03-01T01:02:43;-0.60;99.90
18147;DHT22;9199;48.832;9.182;2023-03-01T01:05:10;-0.60;99.90
18147;DHT22;9199;48.832;9.182;2023-03-01T01:07:36;-0.60;99.90
18147;DHT22;9199;48.832;9.182;2023-03-01T01:10:04;-0.70;99.90
18147;DHT22;9199;48.832;9.182;2023-03-01T01:12:32;-0.70;99.90
18147;DHT22;9199;48.832;9.182;2023-03-01T01:14:59;-0.70;99.90
18147;DHT22;9199;48.832;9.182;2023-03-01T01:17:26;-0.70;99.90
18147;DHT22;9199;48.832;9.182;2023-03-01T01:19:52;-0.80;99.90
18147;DHT22;9199;48.832;9.182;2023-03-01T01:22:19;-0.80;99.90
18147;DHT22;9199;48.832;9.182;2023-03-01T01:24:46;-0.80;99.90
18147;DHT22;9199;48.832;9.182;2023-03-01T01:27:12;-0.80;99.90
18147;DHT22;9199;48.832;9.182;2023-03-01T01:29:41;-0.80;99.90
18147;DHT22;9199;48.832;9.182;2023-03-01T01:32:08;-0.80;99.90
18147;DHT22;9199;48.832;9.182;2023-03-01T01:34:35;-0.80;99.90
18147;DHT22;9199;48.832;9.182;2023-03-01T01:37:01;-0.80;99.90
18147;DHT22;9199;48.832;9.182;2023-03-01T01:39:29;-0.80;99.90
18147;DHT22;9199;48.832;9.182;2023-03-01T01:41:56;-0.80;99.90
18147;DHT22;9199;48.832;9.182;2023-03-01T01:44:24;-0.80;99.90
18147;DHT22;9199;48.832;9.182;2023-03-01T01:46:54;-0.90;99.90
18147;DHT22;9199;48.832;9.182;2023-03-01T01:49:27;-0.90;99.90
18147;DHT22;9199;48.832;9.182;2023-03-01T01:52:00;-0.90;99.90
18147;DHT22;9199;48.832;9.182;2023-03-01T01:54:34;-0.90;99.90
18147;DHT22;9199;48.832;9.182;2023-03-01T01:57:05;-0.90;99.90
18147;DHT22;9199;48.832;9.182;2023-03-01T01:59:34;-0.90;99.90
18147;DHT22;9199;48.832;9.182;2023-03-01T02:02:03;-0.90;99.90
18147;DHT22;9199;48.832;9.182;2023-03-01T02:04:31;-0.90;99.90
18147;DHT22;9199;48.832;9.182;2023-03-01T02:07:01;-0.80;99.90
18147;DHT22;9199;48.832;9.182;2023-03-01T02:09:30;-0.80;99.90
18147;DHT22;9199;48.832;9.182;2023-03-01T02:11:58;-0.70;99.90
18147;DHT22;9199;48.832;9.182;2023-03-01T02:14:25;-0.70;99.90
18147;DHT22;9199;48.832;9.182;2023-03-01T02:16:52;-0.60;99.90
18147;DHT22;9199;48.832;9.182;2023-03-01T02:19:30;-0.60;99.90
18147;DHT22;9199;48.832;9.182;2023-03-01T02:22:06;-0.60;99.90
18147;DHT22;9199;48.832;9.182;2023-03-01T02:24:40;-0.60;99.90
18147;DHT22;9199;48.832;9.182;2023-03-01T02:27:12;-0.60;99.90
18147;DHT22;9199;48.832;9.182;2023-03-01T02:29:40;-0.60;99.90
18147;DHT22;9199;48.832;9.182;2023-03-01T02:32:11;-0.50;99.90
18147;DHT22;9199;48.832;9.182;2023-03-01T02:34:38;-0.40;99.90
18147;DHT22;9199;48.832;9.182;2023-03-01T02:37:08;-0.40;99.90
18147;DHT22;9199;48.832;9.182;2023-03-01T02:39:39;-0.30;99.90
18147;DHT22;9199;48.832;9.182;2023-03-01T02:42:10;-0.20;99.90
18147;DHT22;9199;48.832;9.182;2023-03-01T02:44:37;-0.20;99.90
18147;DHT22;9199;48.832;9.182;2023-03-01T02:47:05;-0.20;99.90
18147;DHT22;9199;48.832;9.182;2023-03-01T02:49:33;-0.20;99.90
18147;DHT22;9199;48.832;9.182;2023-03-01T02:52:25;-0.10;99.90
18147;DHT22;9199;48.832;9.182;2023-03-01T02:54:58;-0.20;99.90
18147;DHT22;9199;48.832;9.182;2023-03-01T02:57:28;-0.10;99.90
18147;DHT22;9199;48.832;9.182;2023-03-01T02:59:55;-0.10;99.90
18147;DHT22;9199;48.832;9.182;2023-03-01T03:02:26;0.00;99.90
18147;DHT22;9199;48.832;9.182;2023-03-01T03:05:04;0.10;99.90
18147;DHT22;9199;48.832;9.182;2023-03-01T03:07:32;0.10;99.90
18147;DHT22;9199;48.832;9.182;2023-03-01T03:09:59;0.10;99.90
18147;DHT22;9199;48.832;9.182;2023-03-01T03:12:26;0.10;99.90
18147;DHT22;9199;48.832;9.182;2023-03-01T03:14:52;0.10;99.90
18147;DHT22;9199;48.832;9.182;2023-03-01T03:17:19;0.10;99.90
18147;DHT22;9199;48.832;9.182;2023-03-01T03:19:47;0.10;99.90
18147;DHT22;9199;48.832;9.182;2023-03-01T03:22:14;0.10;99.90
18147;DHT22;9199;48.832;9.182;2023-03-01T03:24:41;0.20;99.90
18147;DHT22;9199;48.832;9.182;2023-03-01T03:27:07;0.10;99.90
18147;DHT22;9199;48.832;9.182;2023-03-01T03:29:34;0.10;99.90
18147;DHT22;9199;48.832;9.182;2023-03-01T03:32:01;0.10;99.90
18147;DHT22;9199;48.832;9.182;2023-03-01T03:34:28;0.20;99.90
18147;DHT22;9199;48.832;9.182;2023-03-01T03:36:57;0.20;99.90
18147;DHT22;9199;48.832;9.182;2023-03-01T03:39:25;0.20;99.90
18147;DHT22;9199;48.832;9.182;2023-03-01T03:41:53;0.20;99.90
18147;DHT22;9199;48.832;9.182;2023-03-01T03:44:20;0.20;99.90
18147;DHT22;9199;48.832;9.182;2023-03-01T03:46:46;0.30;99.90
18147;DHT22;9199;48.832;9.182;2023-03-01T03:49:13;0.30;99.90
18147;DHT22;9199;48.832;9.182;2023-03-01T03:51:40;0.30;99.90
18147;DHT22;9199;48.832;9.182;2023-03-01T03:54:08;0.30;99.90
18147;DHT22;9199;48.832;9.182;2023-03-01T03:56:35;0.30;99.90
18147;DHT22;9199;48.832;9.182;2023-03-01T03:59:02;0.30;99.90
18147;DHT22;9199;48.832;9.182;2023-03-01T04:01:29;0.30;99.90
18147;DHT22;9199;48.832;9.182;2023-03-01T04:03:55;0.30;99.90
18147;DHT22;9199;48.832;9.182;2023-03-01T04:06:27;0.30;99.90
18147;DHT22;9199;48.832;9.182;2023-03-01T04:08:54;0.40;99.90
18147;DHT22;9199;48.832;9.182;2023-03-01T04:11:25;0.40;99.90
18147;DHT22;9199;48.832;9.182;2023-03-01T04:13:55;0.50;99.90
18147;DHT22;9199;48.832;9.182;2023-03-01T04:16:23;0.50;99.90
18147;DHT22;9199;48.832;9.182;2023-03-01T04:18:49;0.50;99.90
18147;DHT22;9199;48.832;9.182;2023-03-01T04:21:17;0.50;99.90
18147;DHT22;9199;48.832;9.182;2023-03-01T04:23:45;0.50;99.90
18147;DHT22;9199;48.832;9.182;2023-03-01T04:26:12;0.50;99.90
18147;DHT22;9199;48.832;9.182;2023-03-01T04:28:41;0.50;99.90
18147;DHT22;9199;48.832;9.182;2023-03-01T04:31:12;0.50;99.90
18147;DHT22;9199;48.832;9.182;2023-03-01T04:33:42;0.50;99.90
18147;DHT22;9199;48.832;9.182;2023-03-01T04:36:10;0.50;99.90
18147;DHT22;9199;48.832;9.182;2023-03-01T04:38:38;0.50;99.90
18147;DHT22;9199;48.832;9.182;2023-03-01T04:41:05;0.50;99.90
18147;DHT22;9199;48.832;9.182;2023-03-01T04:43:32;0.50;99.90
18147;DHT22;9199;48.832;9.182;2023-03-01T04:46:05;0.50;99.90
18147;DHT22;9199;48.832;9.182;2023-03-01T04:48:33;0.50;99.90
18147;DHT22;9199;48.832;9.182;2023-03-01T04:51:00;0.50;99.90
18147;DHT22;9199;48.832;9.182;2023-03-01T04:53:27;0.50;99.90
18147;DHT22;9199;48.832;9.182;2023-03-01T04:55:55;0.50;99.90
18147;DHT22;9199;48.832;9.182;2023-03-01T04:58:22;0.60;99.90
18147;DHT22;9199;48.832;9.182;2023-03-01T05:00:48;0.60;99.90
18147;DHT22;9199;48.832;9.182;2023-03-01T05:03:16;0.60;99.90
18147;DHT22;9199;48.832;9.182;2023-03-01T05:05:44;0.60;99.90
18147;DHT22;9199;48.832;9.182;2023-03-01T05:08:12;0.60;99.90
18147;DHT22;9199;48.832;9.182;2023-03-01T05:10:43;0.60;99.90
18147;DHT22;9199;48.832;9.182;2023-03-01T05:13:11;0.60;99.90
18147;DHT22;9199;48.832;9.182;2023-03-01T05:15:39;0.60;99.90
18147;DHT22;9199;48.832;9.182;2023-03-01T05:18:05;0.60;99.90
18147;DHT22;9199;48.832;9.182;2023-03-01T05:20:38;0.60;99.90
18147;DHT22;9199;48.832;9.182;2023-03-01T05:23:05;0.60;99.90
18147;DHT22;9199;48.832;9.182;2023-03-01T05:25:33;0.50;99.90
18147;DHT22;9199;48.832;9.182;2023-03-01T05:28:00;0.50;99.90
18147;DHT22;9199;48.832;9.182;2023-03-01T05:30:30;0.50;99.90
18147;DHT22;9199;48.832;9.182;2023-03-01T05:32:56;0.50;99.90
18147;DHT22;9199;48.832;9.182;2023-03-01T05:35:23;0.60;99.90
18147;DHT22;9199;48.832;9.182;2023-03-01T05:37:51;0.60;99.90
18147;DHT22;9199;48.832;9.182;2023-03-01T05:40:20;0.60;99.90
18147;DHT22;9199;48.832;9.182;2023-03-01T05:42:48;0.70;99.90
18147;DHT22;9199;48.832;9.182;2023-03-01T05:45:16;0.60;99.90
18147;DHT22;9199;48.832;9.182;2023-03-01T05:47:45;0.60;99.90
18147;DHT22;9199;48.832;9.182;2023-03-01T05:50:14;0.70;99.90
18147;DHT22;9199;48.832;9.182;2023-03-01T05:52:44;0.70;99.90
18147;DHT22;9199;48.832;9.182;2023-03-01T05:55:13;0.70;99.90
18147;DHT22;9199;48.832;9.182;2023-03-01T05:57:39;0.70;99.90
18147;DHT22;9199;48.832;9.182;2023-03-01T06:00:07;0.70;99.90
18147;DHT22;9199;48.832;9.182;2023-03-01T06:02:34;0.80;99.90
18147;DHT22;9199;48.832;9.182;2023-03-01T06:05:01;0.80;99.90
18147;DHT22;9199;48.832;9.182;2023-03-01T06:07:28;0.80;99.90
18147;DHT22;9199;48.832;9.182;2023-03-01T06:09:54;1.70;99.90
18147;DHT22;9199;48.832;9.182;2023-03-01T06:12:22;2.60;99.90
18147;DHT22;9199;48.832;9.182;2023-03-01T06:14:49;2.80;99.90
18147;DHT22;9199;48.832;9.182;2023-03-01T06:17:16;2.50;99.90
18147;DHT22;9199;48.832;9.182;2023-03-01T06:19:42;2.10;99.90
18147;DHT22;9199;48.832;9.182;2023-03-01T06:22:09;1.80;99.90
18147;DHT22;9199;48.832;9.182;2023-03-01T06:24:36;1.60;99.90
18147;DHT22;9199;48.832;9.182;2023-03-01T06:27:03;1.40;99.90
18147;DHT22;9199;48.832;9.182;2023-03-01T06:29:31;1.20;99.90
18147;DHT22;9199;48.832;9.182;2023-03-01T06:31:57;1.10;99.90
18147;DHT22;9199;48.832;9.182;2023-03-01T06:34:24;1.10;99.90
18147;DHT22;9199;48.832;9.182;2023-03-01T06:36:51;1.00;99.90
18147;DHT22;9199;48.832;9.182;2023-03-01T06:39:17;0.90;99.90
18147;DHT22;9199;48.832;9.182;2023-03-01T06:41:44;0.90;99.90
18147;DHT22;9199;48.832;9.182;2023-03-01T06:44:11;0.90;99.90
18147;DHT22;9199;48.832;9.182;2023-03-01T06:46:40;0.90;99.90
18147;DHT22;9199;48.832;9.182;2023-03-01T06:49:07;0.90;99.90
18147;DHT22;9199;48.832;9.182;2023-03-01T06:51:35;1.00;99.90
18147;DHT22;9199;48.832;9.182;2023-03-01T06:54:02;1.00;99.90
18147;DHT22;9199;48.832;9.182;2023-03-01T06:56:29;1.00;99.90
18147;DHT22;9199;48.832;9.182;2023-03-01T06:58:55;1.10;99.90
18147;DHT22;9199;48.832;9.182;2023-03-01T07:01:22;1.30;99.90
18147;DHT22;9199;48.832;9.182;2023-03-01T07:03:50;1.40;99.90
18147;DHT22;9199;48.832;9.182;2023-03-01T07:06:17;1.60;99.90
18147;DHT22;9199;48.832;9.182;2023-03-01T07:08:44;1.70;99.90
18147;DHT22;9199;48.832;9.182;2023-03-01T07:11:12;1.80;99.90
18147;DHT22;9199;48.832;9.182;2023-03-01T07:13:39;1.90;99.90
18147;DHT22;9199;48.832;9.182;2023-03-01T07:16:06;1.90;99.90
18147;DHT22;9199;48.832;9.182;2023-03-01T07:18:33;2.00;99.90
18147;DHT22;9199;48.832;9.182;2023-03-01T07:21:05;2.10;99.90
18147;DHT22;9199;48.832;9.182;2023-03-01T07:23:32;2.20;99.90
18147;DHT22;9199;48.832;9.182;2023-03-01T07:25:59;2.30;99.90
18147;DHT22;9199;48.832;9.182;2023-03-01T07:28:26;2.50;99.90
18147;DHT22;9199;48.832;9.182;2023-03-01T07:30:53;2.50;99.90
18147;DHT22;9199;48.832;9.182;2023-03-01T07:33:20;2.60;99.90
18147;DHT22;9199;48.832;9.182;2023-03-01T07:35:47;2.60;99.90
18147;DHT22;9199;48.832;9.182;2023-03-01T07:38:15;2.70;99.90
18147;DHT22;9199;48.832;9.182;2023-03-01T07:40:42;2.80;99.90
18147;DHT22;9199;48.832;9.182;2023-03-01T07:43:09;2.90;99.90
18147;DHT22;9199;48.832;9.182;2023-03-01T07:45:35;3.00;99.90
18147;DHT22;9199;48.832;9.182;2023-03-01T07:48:02;3.10;99.90
18147;DHT22;9199;48.832;9.182;2023-03-01T07:50:29;3.10;99.80
18147;DHT22;9199;48.832;9.182;2023-03-01T07:52:56;3.10;99.90
18147;DHT22;9199;48.832;9.182;2023-03-01T07:55:24;3.20;99.70
18147;DHT22;9199;48.832;9.182;2023-03-01T07:57:50;3.30;99.30
18147;DHT22;9199;48.832;9.182;2023-03-01T08:00:18;3.50;99.20
18147;DHT22;9199;48.832;9.182;2023-03-01T08:02:45;3.70;98.90
18147;DHT22;9199;48.832;9.182;2023-03-01T08:05:11;3.60;98.60
18147;DHT22;9199;48.832;9.182;2023-03-01T08:07:38;3.70;98.30
18147;DHT22;9199;48.832;9.182;2023-03-01T08:10:06;3.70;98.30
18147;DHT22;9199;48.832;9.182;2023-03-01T08:12:34;4.00;97.90
18147;DHT22;9199;48.832;9.182;2023-03-01T08:15:01;4.40;97.50
18147;DHT22;9199;48.832;9.182;2023-03-01T08:17:27;4.70;96.70
18147;DHT22;9199;48.832;9.182;2023-03-01T08:19:54;4.90;96.20
18147;DHT22;9199;48.832;9.182;2023-03-01T08:22:21;4.90;95.80
18147;DHT22;9199;48.832;9.182;2023-03-01T08:24:47;4.80;95.80
18147;DHT22;9199;48.832;9.182;2023-03-01T08:27:15;5.00;95.60
18147;DHT22;9199;48.832;9.182;2023-03-01T08:29:43;5.20;95.30
18147;DHT22;9199;48.832;9.182;2023-03-01T08:32:10;5.30;95.00
18147;DHT22;9199;48.832;9.182;2023-03-01T08:34:36;5.40;95.00
18147;DHT22;9199;48.832;9.182;2023-03-01T08:37:03;5.70;94.40
18147;DHT22;9199;48.832;9.182;2023-03-01T08:39:30;6.00;93.50
18147;DHT22;9199;48.832;9.182;2023-03-01T08:41:57;6.50;93.20
18147;DHT22;9199;48.832;9.182;2023-03-01T08:44:24;6.80;92.60
18147;DHT22;9199;48.832;9.182;2023-03-01T08:46:52;7.00;92.00
18147;DHT22;9199;48.832;9.182;2023-03-01T08:49:21;7.00;91.40
18147;DHT22;9199;48.832;9.182;2023-03-01T08:51:48;6.80;91.60
18147;DHT22;9199;48.832;9.182;2023-03-01T08:54:16;6.80;91.40
18147;DHT22;9199;48.832;9.182;2023-03-01T08:56:43;7.10;90.80
18147;DHT22;9199;48.832;9.182;2023-03-01T08:59:11;7.00;90.80
18147;DHT22;9199;48.832;9.182;2023-03-01T09:01:39;7.10;90.40
18147;DHT22;9199;48.832;9.182;2023-03-01T09:04:10;7.10;90.60
18147;DHT22;9199;48.832;9.182;2023-03-01T09:06:37;7.00;90.80
18147;DHT22;9199;48.832;9.182;2023-03-01T09:09:05;7.20;90.50
18147;DHT22;9199;48.832;9.182;2023-03-01T09:11:32;7.70;90.00
18147;DHT22;9199;48.832;9.182;2023-03-01T09:13:59;8.00;88.20
18147;DHT22;9199;48.832;9.182;2023-03-01T09:16:25;8.30;85.80
18147;DHT22;9199;48.832;9.182;2023-03-01T09:18:54;8.10;86.40
18147;DHT22;9199;48.832;9.182;2023-03-01T09:21:23;8.20;86.40
18147;DHT22;9199;48.832;9.182;2023-03-01T09:23:50;8.20;85.80
18147;DHT22;9199;48.832;9.182;2023-03-01T09:26:19;8.40;86.90
18147;DHT22;9199;48.832;9.182;2023-03-01T09:28:48;8.50;84.90
18147;DHT22;9199;48.832;9.182;2023-03-01T09:31:16;8.50;84.50
18147;DHT22;9199;48.832;9.182;2023-03-01T09:33:47;8.80;83.50
18147;DHT22;9199;48.832;9.182;2023-03-01T09:36:16;9.50;81.30
18147;DHT22;9199;48.832;9.182;2023-03-01T09:38:45;9.80;80.10
18147;DHT22;9199;48.832;9.182;2023-03-01T09:41:30;9.50;80.00
18147;DHT22;9199;48.832;9.182;2023-03-01T09:44:01;9.20;79.30
18147;DHT22;9199;48.832;9.182;2023-03-01T09:46:37;9.20;80.10
18147;DHT22;9199;48.832;9.182;2023-03-01T09:49:09;9.20;80.30
18147;DHT22;9199;48.832;9.182;2023-03-01T09:51:37;9.10;80.00
18147;DHT22;9199;48.832;9.182;2023-03-01T09:54:05;9.10;80.20
18147;DHT22;9199;48.832;9.182;2023-03-01T09:56:36;9.90;79.40
18147;DHT22;9199;48.832;9.182;2023-03-01T09:59:16;10.30;76.70
18147;DHT22;9199;48.832;9.182;2023-03-01T10:01:51;11.00;74.40
18147;DHT22;9199;48.832;9.182;2023-03-01T10:04:38;11.30;72.10
18147;DHT22;9199;48.832;9.182;2023-03-01T10:07:20;11.10;72.70
18147;DHT22;9199;48.832;9.182;2023-03-01T10:09:50;11.20;70.90
18147;DHT22;9199;48.832;9.182;2023-03-01T10:12:20;11.40;70.90
18147;DHT22;9199;48.832;9.182;2023-03-01T10:14:54;11.30;70.10
18147;DHT22;9199;48.832;9.182;2023-03-01T10:17:27;11.40;70.20
18147;DHT22;9199;48.832;9.182;2023-03-01T10:19:58;11.30;70.60
18147;DHT22;9199;48.832;9.182;2023-03-01T10:22:36;11.50;70.40
18147;DHT22;9199;48.832;9.182;2023-03-01T10:25:05;12.10;68.60
18147;DHT22;9199;48.832;9.182;2023-03-01T10:27:38;12.00;67.80
18147;DHT22;9199;48.832;9.182;2023-03-01T10:30:16;11.90;67.70
18147;DHT22;9199;48.832;9.182;2023-03-01T10:32:45;12.30;67.90
18147;DHT22;9199;48.832;9.182;2023-03-01T10:35:19;13.00;65.10
18147;DHT22;9199;48.832;9.182;2023-03-01T10:37:57;13.40;64.30
18147;DHT22;9199;48.832;9.182;2023-03-01T10:40:25;14.40;61.40
18147;DHT22;9199;48.832;9.182;2023-03-01T10:42:52;15.00;59.60
18147;DHT22;9199;48.832;9.182;2023-03-01T10:45:31;15.90;57.30
18147;DHT22;9199;48.832;9.182;2023-03-01T10:48:08;15.80;56.90
18147;DHT22;9199;48.832;9.182;2023-03-01T10:50:37;15.70;55.60
18147;DHT22;9199;48.832;9.182;2023-03-01T10:53:25;16.10;53.80
18147;DHT22;9199;48.832;9.182;2023-03-01T10:56:01;15.30;54.90
18147;DHT22;9199;48.832;9.182;2023-03-01T10:58:29;14.40;55.60
18147;DHT22;9199;48.832;9.182;2023-03-01T11:00:58;14.60;55.90
18147;DHT22;9199;48.832;9.182;2023-03-01T11:03:28;14.70;54.60
18147;DHT22;9199;48.832;9.182;2023-03-01T11:05:59;16.30;52.30
18147;DHT22;9199;48.832;9.182;2023-03-01T11:08:35;16.30;51.90
18147;DHT22;9199;48.832;9.182;2023-03-01T11:11:30;16.40;51.00
18147;DHT22;9199;48.832;9.182;2023-03-01T11:14:00;16.20;52.00
18147;DHT22;9199;48.832;9.182;2023-03-01T11:16:31;16.40;50.60
18147;DHT22;9199;48.832;9.182;2023-03-01T11:19:12;16.60;51.10
18147;DHT22;9199;48.832;9.182;2023-03-01T11:21:42;16.30;50.20
18147;DHT22;9199;48.832;9.182;2023-03-01T11:24:11;16.30;49.60
18147;DHT22;9199;48.832;9.182;2023-03-01T11:26:42;16.50;49.20
18147;DHT22;9199;48.832;9.182;2023-03-01T11:29:18;16.20;50.50
18147;DHT22;9199;48.832;9.182;2023-03-01T11:31:48;16.30;50.20
18147;DHT22;9199;48.832;9.182;2023-03-01T11:34:21;16.40;49.40
18147;DHT22;9199;48.832;9.182;2023-03-01T11:36:53;15.80;50.50
18147;DHT22;9199;48.832;9.182;2023-03-01T11:39:28;16.20;49.40
18147;DHT22;9199;48.832;9.182;2023-03-01T11:42:09;16.60;49.40
18147;DHT22;9199;48.832;9.182;2023-03-01T11:44:39;17.00;48.70
18147;DHT22;9199;48.832;9.182;2023-03-01T11:47:22;16.80;48.30
18147;DHT22;9199;48.832;9.182;2023-03-01T11:50:25;17.40;47.10
18147;DHT22;9199;48.832;9.182;2023-03-01T11:56:05;18.10;46.30
18147;DHT22;9199;48.832;9.182;2023-03-01T11:58:58;17.80;45.20
18147;DHT22;9199;48.832;9.182;2023-03-01T12:01:40;17.20;46.90
18147;DHT22;9199;48.832;9.182;2023-03-01T12:07:01;17.10;46.80
18147;DHT22;9199;48.832;9.182;2023-03-01T12:09:38;18.50;44.70
18147;DHT22;9199;48.832;9.182;2023-03-01T12:12:29;18.30;48.70
18147;DHT22;9199;48.832;9.182;2023-03-01T12:20:53;17.40;47.60
18147;DHT22;9199;48.832;9.182;2023-03-01T12:23:44;18.00;49.40
18147;DHT22;9199;48.832;9.182;2023-03-01T12:26:21;18.10;46.50
18147;DHT22;9199;48.832;9.182;2023-03-01T12:29:02;17.70;45.50
18147;DHT22;9199;48.832;9.182;2023-03-01T12:32:00;17.30;45.80
18147;DHT22;9199;48.832;9.182;2023-03-01T12:34:44;17.20;46.10
18147;DHT22;9199;48.832;9.182;2023-03-01T12:37:22;16.80;46.90
18147;DHT22;9199;48.832;9.182;2023-03-01T12:40:12;16.40;47.40
18147;DHT22;9199;48.832;9.182;2023-03-01T12:42:48;15.60;48.00
18147;DHT22;9199;48.832;9.182;2023-03-01T12:45:39;15.00;48.80
18147;DHT22;9199;48.832;9.182;2023-03-01T12:48:26;15.00;49.00
18147;DHT22;9199;48.832;9.182;2023-03-01T12:50:59;16.00;47.30
18147;DHT22;9199;48.832;9.182;2023-03-01T12:53:28;16.40;47.20
18147;DHT22;9199;48.832;9.182;2023-03-01T12:55:59;16.20;48.00
18147;DHT22;9199;48.832;9.182;2023-03-01T12:58:29;16.10;47.30
18147;DHT22;9199;48.832;9.182;2023-03-01T13:01:07;16.00;47.70
18147;DHT22;9199;48.832;9.182;2023-03-01T13:06:42;15.50;48.10
18147;DHT22;9199;48.832;9.182;2023-03-01T13:09:18;15.20;49.10
18147;DHT22;9199;48.832;9.182;2023-03-01T13:11:46;15.60;49.30
18147;DHT22;9199;48.832;9.182;2023-03-01T13:14:36;16.00;48.10
18147;DHT22;9199;48.832;9.182;2023-03-01T13:17:03;15.90;48.60
18147;DHT22;9199;48.832;9.182;2023-03-01T13:19:31;15.30;48.20
18147;DHT22;9199;48.832;9.182;2023-03-01T13:22:27;15.00;48.90
18147;DHT22;9199;48.832;9.182;2023-03-01T13:25:02;14.80;49.20
18147;DHT22;9199;48.832;9.182;2023-03-01T13:27:29;14.50;49.80
18147;DHT22;9199;48.832;9.182;2023-03-01T13:29:57;14.30;49.50
18147;DHT22;9199;48.832;9.182;2023-03-01T13:32:29;14.20;51.10
18147;DHT22;9199;48.832;9.182;2023-03-01T13:35:03;13.70;50.70
18147;DHT22;9199;48.832;9.182;2023-03-01T13:37:33;14.00;50.60
18147;DHT22;9199;48.832;9.182;2023-03-01T13:42:57;14.30;51.00
18147;DHT22;9199;48.832;9.182;2023-03-01T13:45:45;14.00;51.30
18147;DHT22;9199;48.832;9.182;2023-03-01T13:48:18;13.60;51.80
18147;DHT22;9199;48.832;9.182;2023-03-01T13:50:53;13.70;51.80
18147;DHT22;9199;48.832;9.182;2023-03-01T13:53:23;14.40;51.10
18147;DHT22;9199;48.832;9.182;2023-03-01T13:55:55;14.70;50.80
18147;DHT22;9199;48.832;9.182;2023-03-01T13:58:27;14.40;50.60
18147;DHT22;9199;48.832;9.182;2023-03-01T14:00:59;14.20;51.00
18147;DHT22;9199;48.832;9.182;2023-03-01T14:03:27;14.30;51.30
18147;DHT22;9199;48.832;9.182;2023-03-01T14:06:03;14.40;50.60
18147;DHT22;9199;48.832;9.182;2023-03-01T14:08:32;14.40;51.30
18147;DHT22;9199;48.832;9.182;2023-03-01T14:11:31;14.80;50.60
18147;DHT22;9199;48.832;9.182;2023-03-01T14:14:21;15.00;49.70
18147;DHT22;9199;48.832;9.182;2023-03-01T14:16:58;14.60;51.70
18147;DHT22;9199;48.832;9.182;2023-03-01T14:19:29;14.30;52.90
18147;DHT22;9199;48.832;9.182;2023-03-01T14:22:07;14.50;52.60
18147;DHT22;9199;48.832;9.182;2023-03-01T14:24:44;14.60;51.00
18147;DHT22;9199;48.832;9.182;2023-03-01T14:27:13;14.20;52.90
18147;DHT22;9199;48.832;9.182;2023-03-01T14:29:40;14.20;52.30
18147;DHT22;9199;48.832;9.182;2023-03-01T14:32:12;14.30;51.70
18147;DHT22;9199;48.832;9.182;2023-03-01T14:34:45;14.50;51.30
18147;DHT22;9199;48.832;9.182;2023-03-01T14:37:22;14.40;51.10
18147;DHT22;9199;48.832;9.182;2023-03-01T14:39:51;14.30;52.20
18147;DHT22;9199;48.832;9.182;2023-03-01T14:42:19;14.80;50.90
18147;DHT22;9199;48.832;9.182;2023-03-01T14:44:49;14.90;49.90
18147;DHT22;9199;48.832;9.182;2023-03-01T14:47:23;14.40;51.00
18147;DHT22;9199;48.832;9.182;2023-03-01T14:49:56;14.10;52.00
18147;DHT22;9199;48.832;9.182;2023-03-01T14:52:30;14.30;52.10
18147;DHT22;9199;48.832;9.182;2023-03-01T14:54:59;14.00;52.00
18147;DHT22;9199;48.832;9.182;2023-03-01T14:57:28;13.80;51.70
18147;DHT22;9199;48.832;9.182;2023-03-01T14:59:58;13.70;52.00
18147;DHT22;9199;48.832;9.182;2023-03-01T15:02:27;13.80;51.80
18147;DHT22;9199;48.832;9.182;2023-03-01T15:04:58;13.30;52.20
18147;DHT22;9199;48.832;9.182;2023-03-01T15:07:30;13.40;52.70
18147;DHT22;9199;48.832;9.182;2023-03-01T15:09:58;13.50;53.00
18147;DHT22;9199;48.832;9.182;2023-03-01T15:12:40;13.70;52.20
18147;DHT22;9199;48.832;9.182;2023-03-01T15:15:21;13.10;53.30
18147;DHT22;9199;48.832;9.182;2023-03-01T15:17:52;12.30;53.90
18147;DHT22;9199;48.832;9.182;2023-03-01T15:20:22;11.40;55.80
18147;DHT22;9199;48.832;9.182;2023-03-01T15:22:53;10.80;57.70
18147;DHT22;9199;48.832;9.182;2023-03-01T15:25:23;10.40;58.30
18147;DHT22;9199;48.832;9.182;2023-03-01T15:27:51;9.90;60.10
18147;DHT22;9199;48.832;9.182;2023-03-01T15:30:22;9.50;61.50
18147;DHT22;9199;48.832;9.182;2023-03-01T15:33:18;9.20;62.10
18147;DHT22;9199;48.832;9.182;2023-03-01T15:35:47;9.00;62.80
18147;DHT22;9199;48.832;9.182;2023-03-01T15:38:49;8.90;63.30
18147;DHT22;9199;48.832;9.182;2023-03-01T15:41:27;8.90;63.70
18147;DHT22;9199;48.832;9.182;2023-03-01T15:43:56;9.20;63.10
18147;DHT22;9199;48.832;9.182;2023-03-01T15:46:29;9.40;62.60
18147;DHT22;9199;48.832;9.182;2023-03-01T15:48:58;9.40;62.50
18147;DHT22;9199;48.832;9.182;2023-03-01T15:51:31;9.40;62.50
18147;DHT22;9199;48.832;9.182;2023-03-01T15:54:04;9.50;62.70
18147;DHT22;9199;48.832;9.182;2023-03-01T15:56:31;9.60;62.20
18147;DHT22;9199;48.832;9.182;2023-03-01T15:59:00;9.80;61.90
18147;DHT22;9199;48.832;9.182;2023-03-01T16:01:27;10.00;60.70
18147;DHT22;9199;48.832;9.182;2023-03-01T16:03:54;10.40;60.30
18147;DHT22;9199;48.832;9.182;2023-03-01T16:06:22;10.50;59.50
18147;DHT22;9199;48.832;9.182;2023-03-01T16:08:49;10.50;59.10
18147;DHT22;9199;48.832;9.182;2023-03-01T16:11:18;10.50;59.40
18147;DHT22;9199;48.832;9.182;2023-03-01T16:13:46;10.40;59.70
18147;DHT22;9199;48.832;9.182;2023-03-01T16:16:14;9.90;61.00
18147;DHT22;9199;48.832;9.182;2023-03-01T16:18:42;9.30;62.40
18147;DHT22;9199;48.832;9.182;2023-03-01T16:21:16;8.80;63.60
18147;DHT22;9199;48.832;9.182;2023-03-01T16:23:45;8.50;64.40
18147;DHT22;9199;48.832;9.182;2023-03-01T16:26:13;8.20;65.70
18147;DHT22;9199;48.832;9.182;2023-03-01T16:28:42;8.00;66.30
18147;DHT22;9199;48.832;9.182;2023-03-01T16:31:09;7.90;66.90
18147;DHT22;9199;48.832;9.182;2023-03-01T16:33:37;7.90;67.50